Time;durP1;ratioP1;P1;durP2;ratioP2;P2;SDS_P1;SDS_P2;PMS_P1;PMS_P2;Temp;Humidity;BMP_temperature;BMP_pressure;BME280_temperature;BME280_humidity;BME280_pressure;Samples;Min_cycle;Max_cycle;Signal;HPM_P1;HPM_P2
2022/01/11 00:01:07;;;;;;;2.40;2.30;;;20.10;42.80;;;;;;5045187;28;43851;-64
2022/01/11 00:03:37;;;;;;;2.70;2.50;;;20.10;42.70;;;;;;5044490;28;43462;-64
2022/01/11 00:08:53;;;;;;;2.47;2.35;;;20.10;42.80;;;;;;5043105;28;43944;-64
2022/01/11 00:11:20;;;;;;;2.40;2.30;;;20.10;42.70;;;;;;5045095;28;43465;-64
2022/01/11 00:13:48;;;;;;;2.80;2.60;;;20.10;42.80;;;;;;5045104;28;43484;-64
2022/01/11 00:16:15;;;;;;;2.58;2.40;;;20.10;42.80;;;;;;5044772;28;43533;-64
2022/01/11 00:18:43;;;;;;;2.30;2.20;;;20.00;42.80;;;;;;5044705;28;43917;-65
2022/01/11 00:21:11;;;;;;;2.70;2.50;;;20.10;42.80;;;;;;5043620;28;43404;-64
2022/01/11 00:26:06;;;;;;;2.63;2.42;;;20.00;42.80;;;;;;5026564;28;44164;-64
2022/01/11 00:28:34;;;;;;;2.40;2.30;;;20.00;42.70;;;;;;5043848;28;44198;-64
2022/01/11 00:31:30;;;;;;;2.28;2.17;;;20.00;42.70;;;;;;5034869;28;43546;-64
2022/01/11 00:34:00;;;;;;;2.58;2.40;;;20.00;42.80;;;;;;5026094;28;43419;-64
2022/01/11 00:36:40;;;;;;;2.30;2.20;;;20.00;42.80;;;;;;5044570;28;43464;-64
2022/01/11 00:39:11;;;;;;;2.63;2.50;;;19.90;42.80;;;;;;5042764;28;43816;-64
2022/01/11 00:41:41;;;;;;;2.40;2.30;;;19.90;42.80;;;;;;5060235;28;44032;-64
2022/01/11 00:44:09;;;;;;;2.28;2.17;;;19.90;42.80;;;;;;5044229;28;43408;-64
2022/01/11 00:46:40;;;;;;;2.60;2.40;;;19.90;42.80;;;;;;5042954;28;43551;-64
2022/01/11 00:49:08;;;;;;;2.30;2.20;;;19.90;42.70;;;;;;5041423;28;43949;-63
2022/01/11 00:51:36;;;;;;;2.40;2.30;;;19.90;42.80;;;;;;5043066;28;43722;-64
2022/01/11 00:54:03;;;;;;;2.28;2.17;;;19.80;42.70;;;;;;5042922;28;43483;-64
2022/01/11 00:56:31;;;;;;;2.20;2.10;;;19.90;42.80;;;;;;5044147;28;43593;-64
2022/01/11 00:58:59;;;;;;;2.22;2.13;;;19.80;42.80;;;;;;5043779;28;44148;-64
2022/01/11 01:01:27;;;;;;;2.47;2.28;;;19.80;42.70;;;;;;5044294;28;44055;-64
2022/01/11 01:03:55;;;;;;;2.40;2.30;;;19.80;42.70;;;;;;5041882;28;43525;-64
2022/01/11 01:06:22;;;;;;;2.42;2.33;;;19.80;42.70;;;;;;5043377;28;43566;-64
2022/01/11 01:08:50;;;;;;;2.20;2.10;;;19.80;42.70;;;;;;5042414;28;44692;-64
2022/01/11 01:11:18;;;;;;;2.30;2.20;;;19.80;42.70;;;;;;5042690;28;43507;-64
2022/01/11 01:13:47;;;;;;;2.20;2.10;;;19.80;43.40;;;;;;5042979;28;43435;-64
2022/01/11 01:16:14;;;;;;;2.25;2.10;;;19.70;42.70;;;;;;5042368;28;43619;-64
2022/01/11 01:18:51;;;;;;;2.13;2.03;;;19.70;42.70;;;;;;5049657;28;44003;-64
2022/01/11 01:21:19;;;;;;;2.30;2.20;;;19.70;42.70;;;;;;5042289;28;43880;-64
2022/01/11 01:23:49;;;;;;;2.20;2.10;;;19.70;42.70;;;;;;5059520;28;43518;-64
2022/01/11 01:26:17;;;;;;;2.40;2.30;;;19.70;42.70;;;;;;5041751;28;43568;-64
2022/01/11 01:28:47;;;;;;;2.17;2.08;;;19.70;42.80;;;;;;5043858;28;43780;-64
2022/01/11 01:31:15;;;;;;;2.25;2.15;;;19.70;42.70;;;;;;5043784;28;43418;-63
2022/01/11 01:33:43;;;;;;;2.17;2.08;;;19.70;42.70;;;;;;5043715;28;43489;-64
2022/01/11 01:36:11;;;;;;;2.20;2.10;;;19.70;42.80;;;;;;5042425;28;43463;-64
2022/01/11 01:38:39;;;;;;;2.17;2.08;;;19.70;42.70;;;;;;5043555;28;43987;-64
2022/01/11 01:41:19;;;;;;;2.10;2.00;;;19.60;42.70;;;;;;5042183;28;43716;-63
2022/01/11 01:43:51;;;;;;;2.10;2.00;;;19.60;42.70;;;;;;5042027;28;43402;-64
2022/01/11 01:46:18;;;;;;;2.30;2.20;;;19.60;42.70;;;;;;5045456;28;43462;-64
2022/01/11 01:48:46;;;;;;;2.20;2.10;;;19.60;42.70;;;;;;5042150;28;44159;-64
2022/01/11 01:51:14;;;;;;;2.00;1.90;;;19.50;42.70;;;;;;5043469;28;43503;-63
2022/01/11 01:53:47;;;;;;;2.10;2.00;;;19.50;42.70;;;;;;5042309;28;43420;-64
2022/01/11 01:56:17;;;;;;;2.20;2.10;;;19.60;42.70;;;;;;5041842;28;43527;-64
2022/01/11 01:58:45;;;;;;;2.20;2.10;;;19.50;42.70;;;;;;5056071;28;43845;-64
2022/01/11 02:01:14;;;;;;;2.40;2.30;;;19.50;43.30;;;;;;5058864;28;43392;-64
2022/01/11 02:03:43;;;;;;;2.30;2.20;;;19.50;42.70;;;;;;5041232;28;43489;-64
2022/01/11 02:06:14;;;;;;;2.10;2.00;;;19.50;42.70;;;;;;5042553;28;43471;-63
2022/01/11 02:08:44;;;;;;;2.20;2.10;;;19.50;42.70;;;;;;5024348;28;44951;-64
2022/01/11 02:11:15;;;;;;;2.37;2.27;;;19.50;42.70;;;;;;5057066;28;43531;-64
2022/01/11 02:13:44;;;;;;;2.15;2.05;;;19.40;42.70;;;;;;5058390;28;44083;-64
2022/01/11 02:16:14;;;;;;;2.30;2.20;;;19.50;42.70;;;;;;5041278;28;43566;-63
2022/01/11 02:18:45;;;;;;;2.03;1.92;;;19.40;42.70;;;;;;5038872;28;43828;-64
2022/01/11 02:21:16;;;;;;;2.45;2.35;;;19.40;42.70;;;;;;5057133;28;43810;-64
2022/01/11 02:23:44;;;;;;;2.10;2.00;;;19.40;42.70;;;;;;5041867;28;43478;-63
2022/01/11 02:26:12;;;;;;;2.25;2.15;;;19.40;42.70;;;;;;5041553;28;43444;-64
2022/01/11 02:28:43;;;;;;;1.98;1.88;;;19.40;42.70;;;;;;5052197;28;44874;-64
2022/01/11 02:31:13;;;;;;;2.20;2.10;;;19.40;42.70;;;;;;5039526;28;43468;-64
2022/01/11 02:33:51;;;;;;;2.05;1.95;;;19.30;42.70;;;;;;5025268;28;43585;-64
2022/01/11 02:36:26;;;;;;;2.15;2.05;;;19.30;42.70;;;;;;5042674;28;43416;-63
2022/01/11 02:38:56;;;;;;;2.30;2.20;;;19.30;42.70;;;;;;5057281;28;44898;-63
2022/01/11 02:41:27;;;;;;;2.13;2.03;;;19.30;42.70;;;;;;5014793;28;43442;-64
2022/01/11 02:44:01;;;;;;;2.17;2.08;;;19.30;42.70;;;;;;5058259;28;43464;-63
2022/01/11 02:46:28;;;;;;;2.13;2.03;;;19.30;42.70;;;;;;5057932;28;44145;-64
2022/01/11 02:48:59;;;;;;;2.20;2.10;;;19.30;42.70;;;;;;5024865;28;44165;-63
2022/01/11 02:51:32;;;;;;;2.05;1.95;;;19.30;42.70;;;;;;5041510;28;43963;-64
2022/01/11 02:54:02;;;;;;;2.10;2.00;;;19.30;42.70;;;;;;5041162;28;43383;-63
2022/01/11 02:56:30;;;;;;;2.00;1.90;;;19.20;42.70;;;;;;5075125;28;43495;-64
2022/01/11 02:58:58;;;;;;;2.42;2.28;;;19.20;42.70;;;;;;5057957;28;44742;-64
2022/01/11 03:01:26;;;;;;;2.30;2.20;;;19.20;42.70;;;;;;5025025;28;43551;-64
2022/01/11 03:03:54;;;;;;;2.08;1.98;;;19.20;42.70;;;;;;5041298;28;43543;-63
2022/01/11 03:06:24;;;;;;;2.20;2.10;;;19.20;42.70;;;;;;5041276;28;43609;-64
2022/01/11 03:08:52;;;;;;;2.20;2.10;;;19.20;42.70;;;;;;5040643;28;44917;-64
2022/01/11 03:11:21;;;;;;;2.20;2.10;;;19.10;42.70;;;;;;5041420;28;43498;-63
2022/01/11 03:13:50;;;;;;;2.25;2.15;;;19.20;42.70;;;;;;5039112;28;43443;-63
2022/01/11 03:16:18;;;;;;;2.25;2.15;;;19.20;42.70;;;;;;5039664;28;43655;-63
2022/01/11 03:18:47;;;;;;;2.15;2.05;;;19.10;42.60;;;;;;5042474;28;44057;-63
2022/01/11 03:21:16;;;;;;;2.03;1.92;;;19.10;42.70;;;;;;5041069;28;43396;-63
2022/01/11 03:23:44;;;;;;;2.25;2.15;;;19.10;42.70;;;;;;5057813;28;43504;-64
2022/01/11 03:26:12;;;;;;;2.25;2.15;;;19.10;42.70;;;;;;5041762;28;43440;-63
2022/01/11 03:28:41;;;;;;;2.22;2.10;;;19.10;42.80;;;;;;5044311;28;44980;-64
2022/01/11 03:31:09;;;;;;;2.10;2.00;;;19.10;42.80;;;;;;5044365;28;43670;-63
2022/01/11 03:33:45;;;;;;;2.05;1.95;;;19.10;42.70;;;;;;5044399;28;43464;-64
2022/01/11 03:36:13;;;;;;;2.45;2.25;;;19.00;42.80;;;;;;5043939;28;43467;-63
2022/01/11 03:38:41;;;;;;;2.42;2.28;;;19.00;42.70;;;;;;5044320;28;43780;-64
2022/01/11 03:41:12;;;;;;;2.22;2.13;;;19.00;42.80;;;;;;5044321;28;43761;-64
2022/01/11 03:43:41;;;;;;;2.30;2.20;;;19.00;42.80;;;;;;5044285;28;43407;-63
2022/01/11 03:46:13;;;;;;;2.10;2.00;;;19.00;42.80;;;;;;5060750;28;43928;-64
2022/01/11 03:48:41;;;;;;;2.50;2.30;;;19.00;42.80;;;;;;5044019;28;45144;-63
2022/01/11 03:51:08;;;;;;;2.30;2.20;;;19.00;42.80;;;;;;5045292;28;43441;-63
2022/01/11 03:54:04;;;;;;;2.38;2.17;;;19.00;42.80;;;;;;5059356;28;43396;-63
2022/01/11 03:56:35;;;;;;;2.40;2.30;;;18.90;42.70;;;;;;5027246;28;43599;-64
2022/01/11 03:59:12;;;;;;;2.25;2.15;;;18.90;42.80;;;;;;5026260;28;43946;-64
2022/01/11 04:01:40;;;;;;;2.60;2.40;;;18.90;42.80;;;;;;5075231;28;43453;-63
2022/01/11 04:04:11;;;;;;;2.17;2.08;;;18.90;42.80;;;;;;5060823;28;43473;-64
2022/01/11 04:06:39;;;;;;;;;;;18.90;42.90;;;;;;5040701;28;43437;-64
2022/01/11 04:09:08;;;;;;;2.35;2.25;;;18.90;42.90;;;;;;5059860;28;44428;-64
2022/01/11 04:11:36;;;;;;;2.00;1.90;;;18.80;42.90;;;;;;5060320;28;43385;-63
2022/01/11 04:14:04;;;;;;;2.65;2.45;;;18.80;42.90;;;;;;5060250;28;43457;-63
2022/01/11 04:16:32;;;;;;;2.50;2.40;;;18.80;42.90;;;;;;5043126;28;43570;-63
2022/01/11 04:19:01;;;;;;;2.67;2.47;;;18.80;42.80;;;;;;5060230;28;43861;-63
2022/01/11 04:21:29;;;;;;;2.42;2.10;;;18.80;42.90;;;;;;5043228;28;44286;-64
2022/01/11 04:23:58;;;;;;;2.42;2.33;;;18.80;42.90;;;;;;5026989;28;43449;-63
2022/01/11 04:26:26;;;;;;;2.28;2.17;;;18.80;42.90;;;;;;5044647;28;43553;-63
2022/01/11 04:28:57;;;;;;;;;;;18.80;42.90;;;;;;5060655;28;43812;-63
2022/01/11 04:31:25;;;;;;;2.38;2.28;;;18.80;43.00;;;;;;5060205;28;43514;-64
2022/01/11 04:33:52;;;;;;;2.65;2.45;;;18.70;42.90;;;;;;5043496;28;43485;-64
2022/01/11 04:36:20;;;;;;;2.78;2.58;;;18.70;42.90;;;;;;5042801;28;43665;-64
2022/01/11 04:38:48;;;;;;;2.80;2.60;;;18.70;43.00;;;;;;5059809;28;44056;-64
2022/01/11 04:41:16;;;;;;;2.72;2.53;;;18.70;42.90;;;;;;5060327;28;43400;-64
2022/01/11 04:43:48;;;;;;;3.13;2.88;;;18.70;42.90;;;;;;5043646;28;43480;-63
2022/01/11 04:46:18;;;;;;;2.72;2.53;;;18.70;42.90;;;;;;5044112;28;43602;-63
2022/01/11 04:48:53;;;;;;;2.67;2.47;;;18.70;43.00;;;;;;5074483;28;44080;-64
2022/01/11 04:51:24;;;;;;;2.90;2.70;;;18.70;43.00;;;;;;5042922;28;43435;-63
2022/01/11 04:53:52;;;;;;;3.22;3.00;;;18.60;42.90;;;;;;5026713;28;43456;-63
2022/01/11 04:56:22;;;;;;;3.08;2.88;;;18.70;43.00;;;;;;5042536;28;43724;-63
2022/01/11 04:58:49;;;;;;;3.03;2.83;;;18.70;43.00;;;;;;5057368;28;44668;-64
2022/01/11 05:01:17;;;;;;;2.97;2.78;;;18.70;43.00;;;;;;5026614;28;43464;-63
2022/01/11 05:03:46;;;;;;;2.92;2.72;;;18.70;43.00;;;;;;5043779;28;43487;-63
2022/01/11 05:06:14;;;;;;;3.35;3.05;;;18.70;43.00;;;;;;5059194;28;43546;-63
2022/01/11 05:08:45;;;;;;;3.20;3.00;;;18.70;43.00;;;;;;5059094;28;43858;-63
2022/01/11 05:11:13;;;;;;;2.97;2.78;;;18.70;43.00;;;;;;5042988;28;43424;-64
2022/01/11 05:13:41;;;;;;;3.47;3.17;;;18.60;43.00;;;;;;5044058;28;43417;-64
2022/01/11 05:16:23;;;;;;;3.03;2.83;;;18.60;43.00;;;;;;5056024;28;43451;-63
2022/01/11 05:18:51;;;;;;;3.40;3.10;;;18.60;43.00;;;;;;5059251;28;43906;-63
2022/01/11 05:21:19;;;;;;;3.30;3.10;;;18.60;43.00;;;;;;5026163;28;43890;-63
2022/01/11 05:23:49;;;;;;;3.28;2.97;;;18.60;43.10;;;;;;5039470;28;43412;-63
2022/01/11 05:26:17;;;;;;;3.10;2.90;;;18.60;43.00;;;;;;5075964;28;43499;-64
2022/01/11 05:28:44;;;;;;;3.53;3.22;;;18.70;43.10;;;;;;5042412;28;44976;-64
2022/01/11 05:31:12;;;;;;;3.35;2.90;;;18.60;43.10;;;;;;5026181;28;43974;-63
2022/01/11 05:33:41;;;;;;;3.38;3.17;;;18.60;43.10;;;;;;5058816;28;43379;-63
2022/01/11 05:36:09;;;;;;;3.42;3.13;;;18.60;43.10;;;;;;5043456;28;43497;-63
2022/01/11 05:38:37;;;;;;;3.40;3.10;;;18.70;43.20;;;;;;5042325;28;45148;-64
2022/01/11 05:41:06;;;;;;;3.30;3.10;;;18.60;43.00;;;;;;5043747;28;43448;-63
2022/01/11 05:43:35;;;;;;;3.60;3.30;;;18.60;43.00;;;;;;5025291;28;43500;-64
2022/01/11 05:46:04;;;;;;;3.70;3.40;;;18.60;43.00;;;;;;5058846;28;43601;-63
2022/01/11 05:48:33;;;;;;;3.47;3.17;;;18.70;43.10;;;;;;5041489;28;45001;-64
2022/01/11 05:51:01;;;;;;;3.50;3.20;;;18.70;43.00;;;;;;5042054;28;43471;-63
2022/01/11 05:53:29;;;;;;;3.42;3.13;;;18.60;43.00;;;;;;5042423;28;43471;-63
2022/01/11 05:55:57;;;;;;;3.70;3.40;;;18.70;43.00;;;;;;5058724;28;43613;-64
2022/01/11 05:58:25;;;;;;;3.42;3.13;;;18.70;43.00;;;;;;5042203;28;43810;-63
2022/01/11 06:00:52;;;;;;;3.70;3.35;;;18.70;43.00;;;;;;5055336;28;43670;-64
2022/01/11 06:03:20;;;;;;;3.70;3.40;;;18.70;43.00;;;;;;5059234;28;43475;-63
2022/01/11 06:05:49;;;;;;;4.20;3.55;;;18.70;43.00;;;;;;5058338;28;43625;-63
2022/01/11 06:08:18;;;;;;;3.97;3.55;;;18.70;43.00;;;;;;5039289;28;43561;-63
2022/01/11 06:10:49;;;;;;;3.50;3.20;;;18.70;43.00;;;;;;5055695;28;43974;-64
2022/01/11 06:13:19;;;;;;;3.92;3.63;;;18.70;43.00;;;;;;5057243;28;43434;-63
2022/01/11 06:15:49;;;;;;;3.50;3.20;;;18.70;43.00;;;;;;5042108;28;43600;-64
2022/01/11 06:18:17;;;;;;;3.58;3.10;;;18.70;43.00;;;;;;5041921;28;44059;-63
2022/01/11 06:21:17;;;;;;;3.83;3.50;;;18.80;43.00;;;;;;5025650;28;43878;-64
2022/01/11 06:23:46;;;;;;;3.80;3.50;;;18.80;43.00;;;;;;5039052;28;43463;-63
2022/01/11 06:26:17;;;;;;;3.42;3.13;;;18.80;43.00;;;;;;5041639;28;43467;-63
2022/01/11 06:28:44;;;;;;;3.70;3.40;;;18.80;43.00;;;;;;5055589;28;43650;-63
2022/01/11 06:31:12;;;;;;;3.60;3.30;;;18.80;43.00;;;;;;5041490;28;43692;-64
2022/01/11 06:33:40;;;;;;;3.20;2.90;;;18.80;43.00;;;;;;5058350;28;44261;-64
2022/01/11 06:36:10;;;;;;;3.70;3.40;;;18.80;42.90;;;;;;5041170;28;43508;-63
2022/01/11 06:38:40;;;;;;;3.30;3.00;;;18.80;42.90;;;;;;5041380;28;43777;-64
2022/01/11 06:41:10;;;;;;;3.42;3.13;;;18.80;42.90;;;;;;5041287;28;43462;-64
2022/01/11 06:43:40;;;;;;;3.80;3.50;;;18.80;42.90;;;;;;5025178;28;43404;-63
2022/01/11 06:46:07;;;;;;;4.07;3.67;;;18.80;43.00;;;;;;5024887;28;43704;-64
2022/01/11 06:48:36;;;;;;;3.75;3.40;;;18.90;42.90;;;;;;5058627;28;45085;-64
2022/01/11 06:51:04;;;;;;;4.13;3.70;;;18.90;43.00;;;;;;5058277;28;43445;-63
2022/01/11 06:53:41;;;;;;;3.70;3.40;;;18.90;42.90;;;;;;5039003;28;43409;-64
2022/01/11 06:56:08;;;;;;;3.53;3.22;;;18.90;42.80;;;;;;5057893;28;43574;-63
2022/01/11 06:58:38;;;;;;;4.13;3.72;;;18.90;42.90;;;;;;5041370;28;44679;-64
2022/01/11 07:01:06;;;;;;;3.80;3.40;;;18.90;42.90;;;;;;5043545;28;44823;-63
2022/01/11 07:03:35;;;;;;;4.43;3.97;;;18.90;42.80;;;;;;5045348;28;43406;-64
2022/01/11 07:06:18;;;;;;;3.60;3.30;;;18.90;42.80;;;;;;5060576;28;43504;-64
2022/01/11 07:08:45;;;;;;;3.53;3.22;;;19.00;42.90;;;;;;5044431;28;44995;-63
2022/01/11 07:11:18;;;;;;;4.15;3.75;;;19.00;42.90;;;;;;5044664;28;43538;-64
2022/01/11 07:13:46;;;;;;;3.67;3.35;;;19.00;42.90;;;;;;5046116;28;43470;-64
2022/01/11 07:16:14;;;;;;;3.67;3.30;;;19.00;42.90;;;;;;5059871;28;43594;-60
2022/01/11 07:18:42;;;;;;;3.90;3.50;;;19.00;43.10;;;;;;5066101;28;43792;-64
2022/01/11 07:21:12;;;;;;;4.00;3.58;;;19.10;42.90;;;;;;5027927;28;44007;-64
2022/01/11 07:23:39;;;;;;;4.55;3.63;;;19.10;42.90;;;;;;5044782;28;43432;-64
2022/01/11 07:26:07;;;;;;;4.43;3.72;;;19.10;43.00;;;;;;5027239;28;43517;-64
2022/01/11 07:28:36;;;;;;;3.55;3.25;;;19.10;42.90;;;;;;5041652;28;43972;-64
2022/01/11 07:31:08;;;;;;;3.90;3.50;;;19.10;42.90;;;;;;5044536;28;43779;-63
2022/01/11 07:33:43;;;;;;;4.28;3.88;;;19.20;42.90;;;;;;5044679;28;44024;-64
2022/01/11 07:36:10;;;;;;;4.13;3.72;;;19.20;42.80;;;;;;5059028;28;43589;-64
2022/01/11 07:38:40;;;;;;;4.13;3.78;;;19.20;42.80;;;;;;5043160;28;44942;-64
2022/01/11 07:41:12;;;;;;;4.35;3.95;;;19.30;42.90;;;;;;5044312;28;43519;-64
2022/01/11 07:44:06;;;;;;;4.20;3.80;;;19.30;42.70;;;;;;5040464;28;43577;-64
2022/01/11 07:46:42;;;;;;;4.03;3.65;;;19.30;42.80;;;;;;5057823;28;43502;-64
2022/01/11 07:49:15;;;;;;;3.92;3.50;;;19.30;42.70;;;;;;5027265;28;46437;-65
2022/01/11 07:51:42;;;;;;;4.00;3.70;;;19.30;42.70;;;;;;5044028;28;43448;-64
2022/01/11 07:54:11;;;;;;;4.40;4.00;;;19.40;42.80;;;;;;5045258;28;43449;-64
2022/01/11 07:56:39;;;;;;;3.90;3.60;;;19.40;42.70;;;;;;5060095;28;44030;-64
2022/01/11 07:59:09;;;;;;;4.65;3.67;;;19.40;42.70;;;;;;5043658;28;45258;-64
2022/01/11 08:01:42;;;;;;;4.32;3.92;;;19.50;42.80;;;;;;5058834;28;45126;-64
2022/01/11 08:04:13;;;;;;;;;;;19.50;42.60;;;;;;5036288;28;43509;-64
2022/01/11 08:06:46;;;;;;;4.22;3.83;;;19.50;42.60;;;;;;5040456;28;43507;-64
2022/01/11 08:09:33;;;;;;;3.83;3.53;;;19.50;42.70;;;;;;5025782;28;44931;-64
2022/01/11 08:12:01;;;;;;;4.78;4.35;;;19.50;42.70;;;;;;5043130;28;43972;-65
2022/01/11 08:14:29;;;;;;;4.55;4.15;;;19.50;42.60;;;;;;5060780;28;43503;-65
2022/01/11 08:16:59;;;;;;;4.78;4.28;;;19.50;42.50;;;;;;5026272;28;44068;-62
2022/01/11 08:19:27;;;;;;;5.15;4.30;;;19.60;42.70;;;;;;5039404;28;44075;-64
2022/01/11 08:21:57;;;;;;;5.50;4.57;;;19.60;42.60;;;;;;5027101;28;43427;-64
2022/01/11 08:24:34;;;;;;;5.28;4.10;;;19.60;42.60;;;;;;5024075;28;43581;-64
2022/01/11 08:27:02;;;;;;;5.85;4.68;;;19.60;42.70;;;;;;5040388;28;43639;-64
2022/01/11 08:29:29;;;;;;;5.43;4.90;;;19.70;42.70;;;;;;5040781;28;43861;-61
2022/01/11 08:32:00;;;;;;;;;;;19.80;42.60;;;;;;5054091;28;43559;-64
2022/01/11 08:34:29;;;;;;;5.65;4.68;;;19.80;42.70;;;;;;5051382;28;43508;-64
2022/01/11 08:36:58;;;;;;;6.70;4.80;;;19.90;42.70;;;;;;5038055;28;43497;-63
2022/01/11 08:39:27;;;;;;;5.38;4.88;;;20.00;42.70;;;;;;5056012;28;43812;-63
2022/01/11 08:41:54;;;;;;;6.20;4.50;;;20.10;42.60;;;;;;5054470;28;43483;-63
2022/01/11 08:44:24;;;;;;;5.78;4.65;;;20.20;42.50;;;;;;5068854;28;43472;-63
2022/01/11 08:46:54;;;;;;;6.18;4.35;;;20.30;42.40;;;;;;5050009;28;43535;-64
2022/01/11 08:49:29;;;;;;;5.07;4.57;;;20.40;42.30;;;;;;5058819;28;44978;-63
2022/01/11 08:51:56;;;;;;;5.35;4.53;;;20.50;42.20;;;;;;5060611;28;43959;-63
2022/01/11 08:54:24;;;;;;;5.43;4.90;;;20.50;42.10;;;;;;5043093;28;43493;-64
2022/01/11 08:56:56;;;;;;;5.63;5.03;;;20.60;41.90;;;;;;5041625;28;43471;-63
2022/01/11 08:59:25;;;;;;;5.35;4.82;;;20.70;41.90;;;;;;5041528;28;44033;-62
2022/01/11 09:01:59;;;;;;;5.97;5.07;;;20.70;41.90;;;;;;5046658;28;43442;-63
2022/01/11 09:04:29;;;;;;;6.82;5.18;;;20.80;41.80;;;;;;5050664;28;43451;-62
2022/01/11 09:07:09;;;;;;;8.43;5.20;;;20.80;41.80;;;;;;5055369;28;43626;-63
2022/01/11 09:09:40;;;;;;;6.75;5.25;;;21.00;41.70;;;;;;5083036;27;44001;-63
2022/01/11 09:12:13;;;;;;;5.43;4.82;;;21.10;41.60;;;;;;5086118;27;43699;-61
2022/01/11 09:14:43;;;;;;;5.25;4.75;;;21.20;41.50;;;;;;5080776;27;43374;-61
2022/01/11 09:17:12;;;;;;;6.18;4.97;;;21.40;41.70;;;;;;5067134;28;43539;-60
2022/01/11 09:19:41;;;;;;;6.32;5.00;;;21.50;41.40;;;;;;5081867;27;43747;-61
2022/01/11 09:22:11;;;;;;;6.05;5.13;;;21.60;41.20;;;;;;5046921;28;43431;-62
2022/01/11 09:24:40;;;;;;;5.78;4.95;;;21.70;41.00;;;;;;5045821;28;43564;-63
2022/01/11 09:27:11;;;;;;;6.60;5.35;;;21.80;41.60;;;;;;5048915;28;43481;-63
2022/01/11 09:29:41;;;;;;;7.75;5.05;;;22.00;40.80;;;;;;5049717;28;43696;-59
2022/01/11 09:32:12;;;;;;;5.72;5.18;;;22.10;40.60;;;;;;5077529;27;43735;-59
2022/01/11 09:34:41;;;;;;;6.32;5.10;;;22.20;40.40;;;;;;5082001;27;43922;-59
2022/01/11 09:37:15;;;;;;;6.82;5.28;;;22.30;40.50;;;;;;5084163;27;44156;-64
2022/01/11 09:39:43;;;;;;;5.80;5.20;;;22.40;40.40;;;;;;5051836;28;44722;-64
2022/01/11 09:42:11;;;;;;;7.22;5.70;;;22.50;40.30;;;;;;5069336;28;43943;-62
2022/01/11 09:44:40;;;;;;;5.80;5.20;;;22.60;40.10;;;;;;5067559;28;43458;-61
2022/01/11 09:47:12;;;;;;;8.27;5.15;;;22.80;40.00;;;;;;5084932;27;43524;-64
2022/01/11 09:49:44;;;;;;;8.07;5.78;;;22.90;40.10;;;;;;5027280;28;44122;-63
2022/01/11 09:52:12;;;;;;;6.75;5.68;;;23.10;40.10;;;;;;5046488;28;43454;-64
2022/01/11 09:54:47;;;;;;;6.35;4.78;;;23.20;39.90;;;;;;5038214;28;43482;-63
2022/01/11 09:57:17;;;;;;;6.32;5.63;;;23.30;39.60;;;;;;5052336;28;43561;-63
2022/01/11 09:59:45;;;;;;;8.10;5.80;;;23.40;39.50;;;;;;5071262;28;44671;-63
2022/01/11 10:02:31;;;;;;;7.28;6.05;;;23.50;39.30;;;;;;5050883;28;43452;-63
2022/01/11 10:05:11;;;;;;;5.80;5.15;;;23.50;39.20;;;;;;5082777;27;43460;-64
2022/01/11 10:07:46;;;;;;;5.70;4.85;;;23.50;39.10;;;;;;5086478;27;43514;-64
2022/01/11 10:10:17;;;;;;;6.18;5.38;;;23.60;39.10;;;;;;5083858;27;44113;-63
2022/01/11 10:12:50;;;;;;;6.35;5.28;;;23.60;39.00;;;;;;5069296;28;45263;-64
2022/01/11 10:15:35;;;;;;;5.53;4.95;;;23.60;39.00;;;;;;5066891;28;43505;-64
2022/01/11 10:18:33;;;;;;;5.90;5.32;;;23.60;39.10;;;;;;5078155;27;43477;-64
2022/01/11 10:21:34;;;;;;;6.85;4.95;;;23.60;39.00;;;;;;5047446;28;44853;-64
2022/01/11 10:24:24;;;;;;;8.35;5.60;;;23.60;39.00;;;;;;5048588;28;43566;-63
2022/01/11 10:26:56;;;;;;;5.43;4.65;;;23.50;39.00;;;;;;5050395;28;43508;-64
2022/01/11 10:29:40;;;;;;;6.90;5.57;;;23.50;39.00;;;;;;5057412;28;43578;-64
2022/01/11 10:32:30;;;;;;;5.28;4.63;;;23.60;39.00;;;;;;5051765;28;44318;-64
2022/01/11 10:35:13;;;;;;;5.43;4.93;;;23.60;39.00;;;;;;5076599;27;43491;-64
2022/01/11 10:38:02;;;;;;;5.70;4.90;;;23.60;39.10;;;;;;5042845;28;43566;-64
2022/01/11 10:40:34;;;;;;;5.80;5.20;;;23.60;38.90;;;;;;5078881;27;43526;-64
2022/01/11 10:43:16;;;;;;;5.53;4.93;;;23.60;38.90;;;;;;5030023;28;44232;-64
2022/01/11 10:45:58;;;;;;;5.85;4.90;;;23.60;39.00;;;;;;5028469;28;43855;-63
2022/01/11 10:48:36;;;;;;;6.80;5.57;;;23.60;39.00;;;;;;5047315;28;43471;-63
2022/01/11 10:51:03;;;;;;;5.50;5.00;;;23.50;38.90;;;;;;5045217;28;43495;-63
2022/01/11 10:53:38;;;;;;;5.10;4.60;;;23.60;39.10;;;;;;5063923;28;43685;-64
2022/01/11 10:56:11;;;;;;;5.05;4.55;;;23.50;39.10;;;;;;5081266;27;43458;-63
2022/01/11 10:59:08;;;;;;;5.35;4.85;;;23.60;39.10;;;;;;5064359;28;43470;-64
2022/01/11 11:01:38;;;;;;;;;;;23.60;39.10;;;;;;5047209;28;43492;-64
2022/01/11 11:04:32;;;;;;;5.15;4.50;;;23.50;39.10;;;;;;5046997;28;43728;-65
2022/01/11 11:07:15;;;;;;;4.75;4.35;;;23.50;39.20;;;;;;5047344;28;43448;-63
2022/01/11 11:09:59;;;;;;;4.88;4.38;;;23.50;39.30;;;;;;5050064;28;43517;-63
2022/01/11 11:12:27;;;;;;;4.53;4.13;;;23.50;39.40;;;;;;5049388;28;43556;-62
2022/01/11 11:15:05;;;;;;;5.15;4.65;;;23.50;39.50;;;;;;5063647;28;43820;-62
2022/01/11 11:17:38;;;;;;;4.88;4.40;;;23.50;39.50;;;;;;5045471;28;43491;-63
2022/01/11 11:20:14;;;;;;;4.57;4.18;;;23.60;39.60;;;;;;5047981;28;43506;-64
2022/01/11 11:22:42;;;;;;;4.60;4.20;;;23.50;39.50;;;;;;5048868;28;43683;-64
2022/01/11 11:25:10;;;;;;;4.65;4.25;;;23.50;39.50;;;;;;5048901;28;43909;-63
2022/01/11 11:27:37;;;;;;;4.32;3.92;;;23.50;39.60;;;;;;5065725;28;43480;-63
2022/01/11 11:30:05;;;;;;;4.45;4.05;;;23.50;39.60;;;;;;5083867;27;43490;-64
2022/01/11 11:32:33;;;;;;;4.25;3.85;;;23.50;39.70;;;;;;5044657;28;43509;-63
2022/01/11 11:35:02;;;;;;;4.50;4.10;;;23.50;39.70;;;;;;5048463;28;44193;-63
2022/01/11 11:37:34;;;;;;;4.50;4.10;;;23.50;39.80;;;;;;5049569;28;44709;-64
2022/01/11 11:40:13;;;;;;;4.53;4.13;;;23.50;39.70;;;;;;5048100;28;43335;-63
2022/01/11 11:42:42;;;;;;;4.18;3.78;;;23.50;39.80;;;;;;5046479;28;43459;-64
2022/01/11 11:45:19;;;;;;;4.15;3.75;;;23.50;39.80;;;;;;5052397;28;44806;-63
2022/01/11 11:47:47;;;;;;;3.92;3.63;;;23.40;39.80;;;;;;5049085;28;43470;-64
2022/01/11 11:50:22;;;;;;;4.50;4.10;;;23.40;39.70;;;;;;5051526;28;43491;-64
2022/01/11 11:52:54;;;;;;;4.63;4.00;;;23.40;39.60;;;;;;5053599;28;43618;-63
2022/01/11 11:55:27;;;;;;;4.30;3.90;;;23.30;39.60;;;;;;5051232;28;43612;-64
2022/01/11 11:58:10;;;;;;;4.38;4.00;;;23.30;39.60;;;;;;5055686;28;43542;-64
2022/01/11 12:00:44;;;;;;;4.20;3.80;;;23.30;39.70;;;;;;5048548;28;43527;-63
2022/01/11 12:03:22;;;;;;;4.45;4.05;;;23.20;39.60;;;;;;5052624;28;43423;-64
2022/01/11 12:05:51;;;;;;;4.53;4.13;;;23.20;39.60;;;;;;5053424;28;44075;-63
2022/01/11 12:08:34;;;;;;;4.53;4.13;;;23.20;39.70;;;;;;5055559;28;43580;-63
2022/01/11 12:11:12;;;;;;;4.10;3.80;;;23.20;39.60;;;;;;5065723;28;43429;-64
2022/01/11 12:13:56;;;;;;;4.60;4.13;;;23.20;39.70;;;;;;5069943;28;43486;-63
2022/01/11 12:16:25;;;;;;;3.90;3.58;;;23.20;39.80;;;;;;5067349;28;43869;-62
2022/01/11 12:18:55;;;;;;;4.53;4.13;;;23.20;39.90;;;;;;5048326;28;43961;-64
2022/01/11 12:21:25;;;;;;;4.68;4.20;;;23.10;39.70;;;;;;5055521;28;43478;-64
2022/01/11 12:23:58;;;;;;;4.28;3.88;;;23.20;39.80;;;;;;5044670;28;43500;-64
2022/01/11 12:26:34;;;;;;;5.03;4.13;;;23.20;39.90;;;;;;5041566;28;43824;-63
2022/01/11 12:29:11;;;;;;;3.92;3.63;;;23.20;39.90;;;;;;5043291;28;43503;-63
2022/01/11 12:31:49;;;;;;;6.47;4.00;;;23.20;40.10;;;;;;5041462;28;43438;-63
2022/01/11 12:34:18;;;;;;;4.50;4.10;;;23.10;39.90;;;;;;5039241;28;43559;-63
2022/01/11 12:36:57;;;;;;;4.38;3.97;;;23.10;39.80;;;;;;5044518;28;44594;-62
2022/01/11 12:39:27;;;;;;;4.30;4.00;;;23.10;40.10;;;;;;5044772;28;43544;-62
2022/01/11 12:41:56;;;;;;;3.90;3.60;;;23.10;40.10;;;;;;5028673;28;43497;-63
2022/01/11 12:44:28;;;;;;;4.97;4.40;;;23.10;40.00;;;;;;5045830;28;43735;-63
2022/01/11 12:46:59;;;;;;;4.32;3.92;;;23.00;40.00;;;;;;5060168;28;44947;-63
2022/01/11 12:49:27;;;;;;;;;;;23.00;40.00;;;;;;5044308;28;43377;-63
2022/01/11 12:52:17;;;;;;;4.40;4.00;;;23.00;39.90;;;;;;5047284;28;43533;-64
2022/01/11 12:54:49;;;;;;;3.83;3.53;;;23.00;40.10;;;;;;5046250;28;43534;-63
2022/01/11 12:57:18;;;;;;;4.43;4.03;;;23.00;40.10;;;;;;5045280;28;43780;-63
2022/01/11 13:00:17;;;;;;;4.60;3.90;;;23.00;40.00;;;;;;5047276;28;43379;-63
2022/01/11 13:02:44;;;;;;;3.90;3.60;;;23.00;40.00;;;;;;5041078;28;43494;-63
2022/01/11 13:05:21;;;;;;;4.40;3.80;;;23.00;40.20;;;;;;5047699;28;43499;-64
2022/01/11 13:07:51;;;;;;;4.22;3.63;;;23.00;40.20;;;;;;5048148;28;43879;-63
2022/01/11 13:10:24;;;;;;;4.85;3.97;;;22.90;40.10;;;;;;5048412;28;43433;-63
2022/01/11 13:12:56;;;;;;;4.00;3.70;;;22.90;40.20;;;;;;5046939;28;43465;-63
2022/01/11 13:15:38;;;;;;;4.72;3.70;;;22.90;40.20;;;;;;5045891;28;43602;-63